Time;durP1;ratioP1;P1;durP2;ratioP2;P2;SDS_P1;SDS_P2;PMS_P1;PMS_P2;Temp;Humidity;BMP_temperature;BMP_pressure;BME280_temperature;BME280_humidity;BME280_pressure;Samples;Min_cycle;Max_cycle;Signal;HPM_P1;HPM_P2
2022/11/23 00:00:21;;;;;;;2.13;1.10;;;;;;;5.29;100.00;98902.69;4985305;28;20192;-71
2022/11/23 00:02:46;;;;;;;2.43;1.07;;;;;;;5.23;100.00;98909.56;4980117;28;20869;-71
2022/11/23 00:05:12;;;;;;;3.20;1.47;;;;;;;5.18;100.00;98913.03;4979584;28;20307;-71
2022/11/23 00:07:37;;;;;;;1.67;1.00;;;;;;;5.14;100.00;98905.38;4978775;28;20196;-72
2022/11/23 00:10:03;;;;;;;2.33;1.17;;;;;;;5.09;100.00;98904.56;4979151;28;20695;-72
2022/11/23 00:12:28;;;;;;;1.13;0.80;;;;;;;5.04;100.00;98913.16;4986981;28;20214;-72
2022/11/23 00:14:53;;;;;;;3.40;1.40;;;;;;;5.00;100.00;98901.22;4982071;28;20197;-71
2022/11/23 00:17:19;;;;;;;2.73;1.10;;;;;;;4.97;100.00;98913.22;4980020;28;20267;-72
2022/11/23 00:19:44;;;;;;;2.43;1.10;;;;;;;4.89;100.00;98905.59;4979480;28;20209;-72
2022/11/23 00:22:09;;;;;;;1.63;1.00;;;;;;;4.81;100.00;98910.75;4981078;28;20241;-72
2022/11/23 00:24:34;;;;;;;2.83;1.70;;;;;;;4.76;100.00;98909.97;4981001;28;20301;-71
2022/11/23 00:27:00;;;;;;;3.70;1.43;;;;;;;4.71;100.00;98909.16;4982316;28;20196;-72
2022/11/23 00:29:26;;;;;;;2.30;1.13;;;;;;;4.71;100.00;98911.72;4981863;28;20211;-72
2022/11/23 00:31:51;;;;;;;1.63;1.10;;;;;;;4.72;100.00;98911.69;4980625;28;20576;-71
2022/11/23 00:34:16;;;;;;;1.57;1.07;;;;;;;4.73;100.00;98913.38;4981665;28;20197;-71
2022/11/23 00:36:42;;;;;;;2.17;1.40;;;;;;;4.72;100.00;98911.69;4979715;28;20648;-71
2022/11/23 00:39:07;;;;;;;2.70;1.30;;;;;;;4.75;100.00;98909.97;4986080;28;20235;-72
2022/11/23 00:41:32;;;;;;;2.50;1.20;;;;;;;4.77;100.00;98910.81;4976298;28;20250;-72
2022/11/23 00:43:57;;;;;;;2.10;1.10;;;;;;;4.78;100.00;98921.03;4983966;28;20525;-71
2022/11/23 00:46:25;;;;;;;2.97;1.30;;;;;;;4.79;100.00;98917.63;4981374;28;20571;-71
2022/11/23 00:48:52;;;;;;;2.13;1.13;;;;;;;4.80;100.00;98913.34;4981041;28;20937;-72
2022/11/23 00:51:24;;;;;;;2.43;1.17;;;;;;;4.81;100.00;98913.31;4981156;28;20215;-72
2022/11/23 00:53:50;;;;;;;1.60;1.20;;;;;;;4.83;100.00;98910.78;4984211;28;20662;-71
2022/11/23 00:56:17;;;;;;;2.43;1.10;;;;;;;4.86;100.00;98911.59;4984968;28;20193;-71
2022/11/23 00:58:46;;;;;;;1.10;0.80;;;;;;;4.87;100.00;98915.84;4979749;28;20710;-72
2022/11/23 01:01:13;;;;;;;2.87;1.03;;;;;;;4.90;100.00;98914.97;4980024;28;20187;-72
2022/11/23 01:03:45;;;;;;;1.83;1.00;;;;;;;4.90;100.00;98912.41;4977670;28;20198;-72
2022/11/23 01:06:17;;;;;;;1.70;1.00;;;;;;;4.91;100.00;98911.53;4980730;28;20198;-72
2022/11/23 01:08:51;;;;;;;1.47;0.80;;;;;;;4.90;100.00;98914.97;4983946;28;20218;-72
2022/11/23 01:11:18;;;;;;;3.03;1.10;;;;;;;4.86;100.00;98919.28;4976214;28;20281;-72
2022/11/23 01:13:43;;;;;;;1.43;0.83;;;;;;;4.85;100.00;98926.97;4979313;28;20204;-71
2022/11/23 01:16:17;;;;;;;1.23;0.77;;;;;;;4.83;100.00;98926.16;4981711;28;20192;-72
2022/11/23 01:18:42;;;;;;;1.60;1.10;;;;;;;4.84;100.00;98926.13;4984497;28;20505;-72
2022/11/23 01:21:08;;;;;;;1.30;0.80;;;;;;;4.85;100.00;98926.97;4980356;28;20283;-71
2022/11/23 01:23:33;;;;;;;2.27;1.00;;;;;;;4.87;100.00;98932.94;4986448;28;20569;-72
2022/11/23 01:26:07;;;;;;;1.97;1.20;;;;;;;4.90;100.00;98925.22;4992905;28;20182;-72
2022/11/23 01:28:33;;;;;;;2.27;1.00;;;;;;;4.91;100.00;98931.22;4988031;28;20694;-72
2022/11/23 01:31:07;;;;;;;1.93;1.00;;;;;;;4.91;100.00;98929.50;5011918;28;20201;-71
2022/11/23 01:33:33;;;;;;;3.87;1.13;;;;;;;4.93;100.00;98930.34;4996861;28;20200;-71
2022/11/23 01:35:58;;;;;;;1.80;0.90;;;;;;;4.95;100.00;98931.19;4979521;28;20574;-72
2022/11/23 01:38:24;;;;;;;2.93;0.80;;;;;;;5.00;100.00;98929.41;4989009;28;20633;-71
2022/11/23 01:40:49;;;;;;;2.33;1.00;;;;;;;5.08;100.00;98938.78;4989340;28;20354;-72
2022/11/23 01:43:17;;;;;;;2.03;1.00;;;;;;;5.14;100.00;98941.28;4988770;28;20199;-72
2022/11/23 01:45:54;;;;;;;2.03;0.90;;;;;;;5.22;100.00;98936.94;4987981;28;20684;-71
2022/11/23 01:48:25;;;;;;;2.83;1.30;;;;;;;5.31;100.00;98934.28;4987418;28;20275;-72
2022/11/23 01:50:52;;;;;;;2.37;1.03;;;;;;;5.41;100.00;98940.16;4987676;28;20191;-72
2022/11/23 01:53:19;;;;;;;2.33;0.90;;;;;;;5.49;100.00;98942.66;4984351;28;20827;-71
2022/11/23 01:55:47;;;;;;;3.60;1.23;;;;;;;5.58;100.00;98945.16;4988578;28;20249;-72
2022/11/23 01:58:16;;;;;;;2.03;1.00;;;;;;;5.65;100.00;98936.50;4984066;28;20217;-72
2022/11/23 02:00:41;;;;;;;2.47;1.30;;;;;;;5.71;100.00;98935.59;4985460;28;20184;-71
2022/11/23 02:03:08;;;;;;;3.03;1.30;;;;;;;5.77;100.00;98942.38;4982616;28;20203;-72
2022/11/23 02:05:40;;;;;;;1.63;1.00;;;;;;;5.84;100.00;98946.59;4988751;28;20186;-71
2022/11/23 02:08:07;;;;;;;3.27;1.27;;;;;;;5.90;100.00;98937.94;4984364;28;20216;-72
2022/11/23 02:10:34;;;;;;;3.63;1.20;;;;;;;5.95;100.00;98941.31;4982049;28;20577;-72
2022/11/23 02:13:05;;;;;;;3.20;1.50;;;;;;;6.01;100.00;98940.44;4982913;28;20188;-73
2022/11/23 02:15:30;;;;;;;2.87;1.30;;;;;;;6.03;100.00;98944.66;4984972;28;20244;-72
2022/11/23 02:17:58;;;;;;;3.23;1.30;;;;;;;6.05;100.00;98950.66;4985985;28;20203;-72
2022/11/23 02:20:23;;;;;;;2.97;1.40;;;;;;;6.06;100.00;98952.34;4984158;28;20220;-72
2022/11/23 02:23:23;;;;;;;3.00;1.50;;;;;;;6.07;100.00;98948.91;4982352;28;20626;-72
2022/11/23 02:26:13;;;;;;;2.30;1.43;;;;;;;6.08;100.00;98948.03;4990046;28;20197;-72
2022/11/23 02:28:45;;;;;;;3.63;1.47;;;;;;;6.08;100.00;98954.88;4983363;28;20293;-73
2022/11/23 02:31:11;;;;;;;4.37;1.60;;;;;;;6.09;100.00;98951.44;4986262;28;20254;-73
2022/11/23 02:33:38;;;;;;;3.43;1.63;;;;;;;6.06;100.00;98942.06;4985236;28;20669;-72
2022/11/23 02:36:37;;;;;;;2.03;1.13;;;;;;;6.07;100.00;98948.91;4989629;28;20562;-72
2022/11/23 02:39:29;;;;;;;3.70;1.50;;;;;;;6.07;100.00;98943.78;4983172;28;20215;-73
2022/11/23 02:41:55;;;;;;;1.67;0.97;;;;;;;6.06;100.00;98939.50;4981368;28;20267;-72
2022/11/23 02:44:36;;;;;;;3.03;1.33;;;;;;;6.05;100.00;98940.38;4991949;28;20188;-72
2022/11/23 02:47:01;;;;;;;2.17;1.20;;;;;;;6.04;100.00;98938.66;4983656;28;20244;-72
2022/11/23 02:49:27;;;;;;;2.87;1.53;;;;;;;6.04;100.00;98943.81;4983926;28;20746;-72
2022/11/23 02:51:52;;;;;;;2.13;1.37;;;;;;;6.06;100.00;98936.06;4984813;28;20223;-71
2022/11/23 02:54:18;;;;;;;2.20;1.33;;;;;;;6.05;100.00;98939.53;4979644;28;20207;-72
2022/11/23 02:56:43;;;;;;;2.80;1.10;;;;;;;6.04;100.00;98938.66;4990471;28;20240;-73
2022/11/23 02:59:09;;;;;;;1.50;1.13;;;;;;;6.04;100.00;98933.53;4989232;28;20215;-72
2022/11/23 03:01:34;;;;;;;2.63;1.37;;;;;;;6.01;100.00;98932.72;4983744;28;20527;-73
2022/11/23 03:03:59;;;;;;;3.10;1.50;;;;;;;5.95;100.00;98923.34;4979316;28;20184;-71
2022/11/23 03:06:25;;;;;;;3.57;1.33;;;;;;;5.85;100.00;98922.59;4983188;28;20195;-72
2022/11/23 03:08:50;;;;;;;4.40;1.57;;;;;;;5.77;100.00;98920.13;4982209;28;20270;-71
2022/11/23 03:11:16;;;;;;;1.87;1.17;;;;;;;5.65;100.00;98915.97;4982063;28;20188;-72
2022/11/23 03:13:41;;;;;;;3.63;1.43;;;;;;;5.57;100.00;98916.91;4980682;28;20682;-72
2022/11/23 03:16:07;;;;;;;3.13;1.57;;;;;;;5.48;100.00;98911.03;4979643;28;21944;-72
2022/11/23 03:18:32;;;;;;;2.23;1.10;;;;;;;5.42;100.00;98910.25;4982321;28;20212;-73
2022/11/23 03:21:02;;;;;;;2.07;1.30;;;;;;;5.34;100.00;98903.47;4985003;28;20307;-72
2022/11/23 03:23:28;;;;;;;1.97;0.70;;;;;;;5.28;100.00;98916.38;4979861;28;20306;-72
2022/11/23 03:25:55;;;;;;;3.67;1.40;;;;;;;5.26;100.00;98922.34;4990850;28;20271;-72
2022/11/23 03:28:21;;;;;;;2.20;1.30;;;;;;;5.20;100.00;98918.13;4984367;28;20216;-72
2022/11/23 03:30:46;;;;;;;2.23;1.00;;;;;;;5.16;100.00;98924.16;4982659;28;20190;-72
2022/11/23 03:33:11;;;;;;;3.33;1.43;;;;;;;5.10;100.00;98921.66;4983703;28;20191;-71
2022/11/23 03:35:37;;;;;;;2.43;1.00;;;;;;;5.04;100.00;98915.72;4982203;28;20189;-73
2022/11/23 03:38:03;;;;;;;3.70;1.40;;;;;;;4.98;100.00;98922.59;4983679;28;20294;-71
2022/11/23 03:40:28;;;;;;;2.53;1.23;;;;;;;4.94;100.00;98926.03;4977626;28;20192;-73
2022/11/23 03:42:53;;;;;;;2.90;1.17;;;;;;;4.93;100.00;98919.22;4980969;28;20564;-72
2022/11/23 03:45:18;;;;;;;2.50;1.20;;;;;;;4.89;100.00;98915.84;4984831;28;20221;-73
2022/11/23 03:47:44;;;;;;;2.17;1.10;;;;;;;4.87;100.00;98917.56;4978817;28;20184;-72
2022/11/23 03:50:09;;;;;;;2.23;1.00;;;;;;;4.83;100.00;98921.03;4983004;28;20201;-72
2022/11/23 03:52:34;;;;;;;5.47;1.20;;;;;;;4.82;100.00;98916.75;4985090;28;20190;-72
2022/11/23 03:54:59;;;;;;;2.47;0.97;;;;;;;4.82;100.00;98916.75;4982545;28;20275;-72
2022/11/23 03:57:25;;;;;;;1.80;1.13;;;;;;;4.82;100.00;98914.19;4981280;28;20191;-72
2022/11/23 03:59:50;;;;;;;3.87;1.40;;;;;;;4.85;100.00;98915.00;4986281;28;20229;-72
2022/11/23 04:02:15;;;;;;;1.83;1.00;;;;;;;4.86;100.00;98914.16;4984057;28;20194;-71
2022/11/23 04:04:41;;;;;;;2.30;1.20;;;;;;;4.90;100.00;98911.56;4984808;28;20185;-72
2022/11/23 04:07:06;;;;;;;4.30;1.67;;;;;;;4.91;100.00;98910.72;4980877;28;20191;-72
2022/11/23 04:09:31;;;;;;;3.30;1.23;;;;;;;4.92;100.00;98909.81;4986321;28;20203;-72
2022/11/23 04:11:57;;;;;;;2.27;1.10;;;;;;;4.91;100.00;98913.28;4978572;28;20230;-72
2022/11/23 04:14:22;;;;;;;4.17;1.20;;;;;;;4.87;100.00;98908.16;4980498;28;20189;-72
2022/11/23 04:16:47;;;;;;;2.23;1.10;;;;;;;4.85;100.00;98912.44;4983591;28;20199;-73
2022/11/23 04:19:13;;;;;;;3.20;1.00;;;;;;;4.80;100.00;98906.50;4979654;28;20300;-73
2022/11/23 04:21:38;;;;;;;1.87;0.80;;;;;;;4.79;100.00;98902.22;4979872;28;20183;-73
2022/11/23 04:24:04;;;;;;;3.57;1.43;;;;;;;4.77;100.00;98903.97;4979756;28;20186;-73
2022/11/23 04:26:29;;;;;;;2.83;1.07;;;;;;;4.77;100.00;98903.97;4979243;28;20204;-74
2022/11/23 04:28:54;;;;;;;1.70;0.90;;;;;;;4.80;100.00;98898.81;4991909;28;20198;-72
2022/11/23 04:31:19;;;;;;;1.47;0.90;;;;;;;4.85;100.00;98903.91;4985741;28;20777;-72
2022/11/23 04:33:45;;;;;;;1.97;0.80;;;;;;;4.89;100.00;98897.88;4979863;28;20189;-71
2022/11/23 04:36:10;;;;;;;1.70;0.90;;;;;;;4.94;100.00;98902.97;4987283;28;20199;-72
2022/11/23 04:38:35;;;;;;;1.80;0.90;;;;;;;4.95;100.00;98897.84;4980001;28;20268;-73
2022/11/23 04:41:01;;;;;;;1.60;0.80;;;;;;;4.96;100.00;98897.00;4983276;28;20191;-72
2022/11/23 04:43:26;;;;;;;1.63;0.97;;;;;;;4.99;100.00;98906.34;4979946;28;20260;-73
2022/11/23 04:45:51;;;;;;;3.13;1.10;;;;;;;5.02;100.00;98903.78;4979655;28;20223;-72
2022/11/23 04:48:17;;;;;;;1.40;0.83;;;;;;;5.06;100.00;98899.47;4984577;28;20228;-72
2022/11/23 04:50:42;;;;;;;2.37;0.80;;;;;;;5.08;100.00;98898.56;4984084;28;21013;-72
2022/11/23 04:53:08;;;;;;;2.87;1.00;;;;;;;5.11;100.00;98901.13;4978154;28;20533;-72
2022/11/23 04:55:33;;;;;;;2.70;1.20;;;;;;;5.14;100.00;98901.09;4980978;28;20266;-72
2022/11/23 04:57:58;;;;;;;2.70;0.93;;;;;;;5.17;100.00;98902.78;4981103;28;20940;-72
2022/11/23 05:00:24;;;;;;;3.57;1.30;;;;;;;5.17;100.00;98901.06;4983731;28;20796;-70
2022/11/23 05:02:49;;;;;;;3.07;1.07;;;;;;;5.16;100.00;98904.50;4979775;28;20258;-71
2022/11/23 05:05:14;;;;;;;2.87;1.07;;;;;;;5.14;100.00;98898.53;4981175;28;20194;-72
2022/11/23 05:07:40;;;;;;;2.13;1.10;;;;;;;5.08;100.00;98901.13;4979127;28;20191;-72
2022/11/23 05:10:05;;;;;;;2.37;0.87;;;;;;;5.01;100.00;98907.19;4984780;28;20254;-72
2022/11/23 05:12:31;;;;;;;1.93;0.90;;;;;;;4.91;100.00;98910.72;4982126;28;20213;-71
2022/11/23 05:14:56;;;;;;;2.03;1.10;;;;;;;4.80;100.00;98913.34;4983410;28;20695;-70
2022/11/23 05:17:21;;;;;;;1.93;1.10;;;;;;;4.68;100.00;98909.16;4982900;28;20190;-71
2022/11/23 05:19:47;;;;;;;2.20;1.10;;;;;;;4.54;100.00;98904.13;4980071;28;20245;-72
2022/11/23 05:22:12;;;;;;;2.60;1.00;;;;;;;4.41;100.00;98909.31;4980129;28;20680;-71
2022/11/23 05:24:37;;;;;;;2.33;1.10;;;;;;;4.30;100.00;98913.66;4977898;28;20685;-74
2022/11/23 05:27:02;;;;;;;1.83;1.00;;;;;;;4.18;100.00;98916.31;4984299;28;20207;-71
2022/11/23 05:29:28;;;;;;;2.60;1.17;;;;;;;4.05;100.00;98911.25;4982547;28;20208;-72
2022/11/23 05:31:53;;;;;;;1.77;1.10;;;;;;;3.95;100.00;98914.69;4980917;28;20198;-72
2022/11/23 05:34:18;;;;;;;1.67;1.00;;;;;;;3.84;100.00;98914.75;4981073;28;20190;-72
2022/11/23 05:36:44;;;;;;;1.97;0.80;;;;;;;3.76;100.00;98916.47;4982017;28;21156;-72
2022/11/23 05:39:09;;;;;;;2.17;1.00;;;;;;;3.68;100.00;98916.50;4981447;28;20213;-71
2022/11/23 05:41:35;;;;;;;2.13;0.97;;;;;;;3.63;100.00;98918.22;4982018;28;20228;-74
2022/11/23 05:44:00;;;;;;;2.47;1.40;;;;;;;3.58;100.00;98913.09;4982935;28;20232;-71
2022/11/23 05:46:25;;;;;;;3.33;1.20;;;;;;;3.53;100.00;98921.66;4981455;28;20188;-72
2022/11/23 05:48:51;;;;;;;2.70;1.50;;;;;;;3.48;100.00;98922.50;4984521;28;20193;-72
2022/11/23 05:51:16;;;;;;;2.30;1.20;;;;;;;3.45;100.00;98921.66;4981061;28;20184;-71
2022/11/23 05:53:41;;;;;;;3.00;1.30;;;;;;;3.40;100.00;98918.28;4983339;28;20490;-72
2022/11/23 05:56:07;;;;;;;2.10;1.00;;;;;;;3.34;100.00;98924.22;4980009;28;20251;-71
2022/11/23 05:58:32;;;;;;;1.37;0.97;;;;;;;3.29;100.00;98933.63;4979749;28;20842;-71
2022/11/23 06:01:01;;;;;;;1.47;1.17;;;;;;;3.21;100.00;98925.97;4980256;28;20720;-71
2022/11/23 06:03:26;;;;;;;3.03;1.50;;;;;;;3.17;100.00;98922.59;4977195;28;20177;-74
2022/11/23 06:05:52;;;;;;;2.87;2.10;;;;;;;3.14;100.00;98934.50;4984425;28;20256;-71
2022/11/23 06:08:17;;;;;;;4.20;2.10;;;;;;;3.09;100.00;98928.56;4980626;28;20311;-72
2022/11/23 06:10:43;;;;;;;2.90;2.30;;;;;;;3.05;100.00;98926.00;4978259;28;20277;-72
2022/11/23 06:13:08;;;;;;;3.50;1.97;;;;;;;3.00;100.00;98932.78;4984402;28;20185;-72
2022/11/23 06:15:34;;;;;;;2.93;2.20;;;;;;;2.98;100.00;98928.53;4980098;28;20268;-72
2022/11/23 06:18:00;;;;;;;3.13;2.03;;;;;;;2.93;100.00;98928.56;4986983;28;20336;-72
2022/11/23 06:20:26;;;;;;;3.50;1.83;;;;;;;2.93;100.00;98931.09;4983038;28;20201;-73
2022/11/23 06:22:52;;;;;;;2.23;1.37;;;;;;;2.89;100.00;98927.69;4976426;28;20181;-72
2022/11/23 06:25:18;;;;;;;4.47;1.73;;;;;;;2.86;100.00;98921.72;4980733;28;20181;-72
2022/11/23 06:27:57;;;;;;;4.90;1.80;;;;;;;2.84;100.00;98923.41;4984549;28;20255;-71
2022/11/23 06:30:24;;;;;;;3.47;2.17;;;;;;;2.81;100.00;98928.53;4985045;28;20556;-70
2022/11/23 06:32:49;;;;;;;4.20;2.00;;;;;;;2.76;100.00;98931.06;4984132;28;20188;-71
2022/11/23 06:35:15;;;;;;;7.27;3.10;;;;;;;2.71;100.00;98928.53;4987094;28;20180;-72
2022/11/23 06:37:40;;;;;;;15.00;8.20;;;;;;;2.68;100.00;98936.19;4986962;28;20565;-72
2022/11/23 06:40:07;;;;;;;14.63;7.73;;;;;;;2.67;100.00;98928.53;4979204;28;20201;-72
2022/11/23 06:42:32;;;;;;;16.37;9.00;;;;;;;2.66;100.00;98925.09;4976553;28;20196;-72
2022/11/23 06:44:58;;;;;;;14.30;7.70;;;;;;;2.67;100.00;98926.81;4976535;28;20189;-72
2022/11/23 06:47:23;;;;;;;10.57;5.03;;;;;;;2.70;100.00;98929.38;4978422;28;20585;-73
2022/11/23 06:49:48;;;;;;;7.50;3.80;;;;;;;2.75;100.00;98934.47;4977745;28;20239;-71
2022/11/23 06:52:14;;;;;;;5.53;3.43;;;;;;;2.80;100.00;98939.63;4978266;28;20642;-71
2022/11/23 06:54:39;;;;;;;5.60;2.93;;;;;;;2.84;100.00;98936.19;4978540;28;20251;-72
2022/11/23 06:57:08;;;;;;;4.67;2.83;;;;;;;2.89;100.00;98931.94;4980260;28;20251;-71
2022/11/23 06:59:33;;;;;;;4.43;2.80;;;;;;;2.96;100.00;98933.63;4981215;28;20221;-72
2022/11/23 07:01:59;;;;;;;5.27;2.40;;;;;;;3.03;100.00;98939.59;4990058;28;20188;-72
2022/11/23 07:04:24;;;;;;;3.90;2.53;;;;;;;3.06;100.00;98947.28;4986972;28;20240;-71
2022/11/23 07:06:49;;;;;;;5.07;2.87;;;;;;;3.07;100.00;98950.69;4986220;28;20177;-71
2022/11/23 07:09:15;;;;;;;6.40;3.40;;;;;;;3.09;100.00;98941.31;4984789;28;20197;-72
2022/11/23 07:11:40;;;;;;;8.53;4.00;;;;;;;3.11;100.00;98953.25;4985063;28;20591;-72
2022/11/23 07:14:05;;;;;;;9.23;5.27;;;;;;;3.13;100.00;98953.22;4982852;28;20185;-72
2022/11/23 07:16:31;;;;;;;9.43;5.37;;;;;;;3.12;100.00;98960.06;4986232;28;20185;-72
2022/11/23 07:18:57;;;;;;;9.47;4.77;;;;;;;3.11;100.00;98960.03;4983864;28;20248;-72
2022/11/23 07:21:22;;;;;;;7.07;4.20;;;;;;;3.13;100.00;98964.31;4981334;28;20272;-72
2022/11/23 07:23:47;;;;;;;33.40;19.27;;;;;;;3.18;100.00;98964.31;4976882;28;20204;-72
2022/11/23 07:26:13;;;;;;;29.97;18.47;;;;;;;3.28;100.00;98970.28;4978578;28;20260;-74
2022/11/23 07:28:38;;;;;;;24.17;16.07;;;;;;;3.40;100.00;98961.75;5010169;28;20221;-73
2022/11/23 07:31:03;;;;;;;21.20;13.23;;;;;;;3.50;100.00;98963.44;4998486;28;20186;-71
2022/11/23 07:33:29;;;;;;;25.70;17.97;;;;;;;3.59;100.00;98957.47;4986534;28;20196;-71
2022/11/23 07:35:54;;;;;;;23.83;16.37;;;;;;;3.70;100.00;98967.69;4989420;28;20180;-70
2022/11/23 07:38:19;;;;;;;23.57;14.03;;;;;;;3.81;100.00;98968.50;4981796;28;20213;-72
2022/11/23 07:40:48;;;;;;;16.80;11.67;;;;;;;3.91;100.00;98966.78;4983174;28;20199;-72
2022/11/23 07:43:13;;;;;;;16.23;11.83;;;;;;;4.00;100.00;98958.22;4983854;28;20196;-72
2022/11/23 07:45:39;;;;;;;15.27;10.83;;;;;;;4.10;100.00;98957.31;4985453;28;20182;-72
2022/11/23 07:48:08;;;;;;;12.00;8.10;;;;;;;4.23;100.00;98961.50;4984775;28;20950;-72
2022/11/23 07:50:35;;;;;;;9.67;6.87;;;;;;;4.36;100.00;98964.00;4986822;28;20793;-72
2022/11/23 07:53:02;;;;;;;7.50;4.90;;;;;;;4.50;100.00;98964.78;4985241;28;20193;-72
2022/11/23 07:55:29;;;;;;;6.20;4.13;;;;;;;4.67;100.00;98968.97;4984881;28;20277;-72
2022/11/23 07:57:55;;;;;;;5.33;3.27;;;;;;;4.81;100.00;98966.31;4985947;28;20238;-72
2022/11/23 08:00:21;;;;;;;4.33;2.53;;;;;;;4.94;100.00;98967.94;4986498;28;20241;-73
2022/11/23 08:02:47;;;;;;;4.60;2.20;;;;;;;5.05;100.00;98970.44;4981997;28;20279;-72
2022/11/23 08:05:12;;;;;;;4.40;1.50;;;;;;;5.16;100.00;98970.31;4988342;28;20314;-72
2022/11/23 08:07:38;;;;;;;3.30;1.73;;;;;;;5.27;100.00;98968.53;4984633;28;20197;-73
2022/11/23 08:10:04;;;;;;;3.63;1.60;;;;;;;5.38;100.00;98968.41;4984454;28;20205;-71
2022/11/23 08:12:30;;;;;;;3.80;1.57;;;;;;;5.48;100.00;98970.06;4984382;28;20178;-73
2022/11/23 08:14:55;;;;;;;2.27;1.27;;;;;;;5.59;100.00;98964.81;4984627;28;20181;-72
2022/11/23 08:17:20;;;;;;;3.93;1.33;;;;;;;5.70;100.00;98961.28;4980951;28;20610;-71
2022/11/23 08:19:46;;;;;;;3.20;1.30;;;;;;;5.80;100.00;98958.59;4987844;28;20209;-70
2022/11/23 08:22:11;;;;;;;1.57;0.93;;;;;;;5.94;100.00;98960.16;4984627;28;20182;-71
2022/11/23 08:24:36;;;;;;;1.47;0.90;;;;;;;6.05;100.00;98958.34;4982745;28;20702;-71
2022/11/23 08:27:02;;;;;;;2.50;1.23;;;;;;;6.14;100.00;98941.97;4981598;28;20294;-71
2022/11/23 08:29:28;;;;;;;2.13;1.10;;;;;;;6.27;100.00;98954.66;4981583;28;20220;-71
2022/11/23 08:31:53;;;;;;;2.43;1.30;;;;;;;6.36;100.00;98950.25;4984772;28;20192;-73
2022/11/23 08:34:19;;;;;;;4.53;1.40;;;;;;;6.46;100.00;98947.56;4980856;28;20184;-72
2022/11/23 08:36:44;;;;;;;1.50;1.00;;;;;;;6.53;100.00;98952.59;4984758;28;20185;-71
2022/11/23 08:39:11;;;;;;;3.20;1.07;;;;;;;6.60;100.00;98957.66;4981913;28;20229;-72
2022/11/23 08:41:37;;;;;;;2.40;1.20;;;;;;;6.67;100.00;98952.41;4984407;28;20203;-71
2022/11/23 08:44:03;;;;;;;3.07;1.30;;;;;;;6.71;100.00;98951.50;4983532;28;20649;-71
2022/11/23 08:46:28;;;;;;;3.13;1.40;;;;;;;6.78;100.00;98948.81;4984852;28;20209;-71
2022/11/23 08:48:53;;;;;;;2.10;1.00;;;;;;;6.83;100.00;98942.72;4985387;28;20596;-72
2022/11/23 08:51:21;;;;;;;2.53;1.27;;;;;;;6.90;100.00;98945.22;4981288;28;20676;-72
2022/11/23 08:53:50;;;;;;;3.90;1.23;;;;;;;6.95;100.00;98946.00;4983702;28;20184;-72
2022/11/23 08:56:16;;;;;;;2.50;1.37;;;;;;;7.00;100.00;98944.19;4979477;28;20190;-71
2022/11/23 08:58:41;;;;;;;2.23;1.20;;;;;;;7.06;100.00;98941.53;4982375;28;20217;-71
2022/11/23 09:01:11;;;;;;;3.00;1.50;;;;;;;7.13;100.00;98935.38;4983453;28;20602;-75
2022/11/23 09:03:37;;;;;;;2.17;1.10;;;;;;;7.20;100.00;98949.00;4984181;28;20271;-71
2022/11/23 09:06:03;;;;;;;2.70;1.20;;;;;;;7.29;100.00;98948.84;4984085;28;21111;-72
2022/11/23 09:08:28;;;;;;;5.93;1.63;;;;;;;7.37;100.00;98948.72;4984803;28;20237;-72
2022/11/23 09:10:53;;;;;;;2.93;1.20;;;;;;;7.43;100.00;98946.03;4985147;28;20254;-71
2022/11/23 09:13:19;;;;;;;4.13;1.70;;;;;;;7.50;100.00;98946.75;4984212;28;20189;-71
2022/11/23 09:15:45;;;;;;;2.40;1.20;;;;;;;7.57;100.00;98942.34;4982895;28;20201;-71
2022/11/23 09:18:10;;;;;;;1.73;1.30;;;;;;;7.62;100.00;98948.28;4984533;28;20212;-73
2022/11/23 09:20:38;;;;;;;2.47;1.20;;;;;;;7.68;100.00;98944.72;4982173;28;20196;-72
2022/11/23 09:23:03;;;;;;;3.10;1.30;;;;;;;7.72;100.00;98946.38;4982594;28;20196;-71
2022/11/23 09:25:28;;;;;;;2.87;1.43;;;;;;;7.75;100.00;98942.00;4979206;28;20183;-72
2022/11/23 09:28:03;;;;;;;5.30;1.80;;;;;;;7.81;100.00;98948.78;4983473;28;20325;-71
2022/11/23 09:30:28;;;;;;;6.10;1.60;;;;;;;7.87;100.00;98956.41;4983985;28;20188;-72
2022/11/23 09:32:56;;;;;;;2.20;1.37;;;;;;;7.94;100.00;98944.25;4978368;28;20188;-73
2022/11/23 09:35:21;;;;;;;3.73;1.90;;;;;;;8.02;100.00;98942.34;4984851;28;20588;-72
2022/11/23 09:37:46;;;;;;;3.37;1.80;;;;;;;8.12;100.00;98942.19;4981559;28;20282;-72
2022/11/23 09:40:16;;;;;;;7.50;6.80;;;;;;;8.18;100.00;98952.34;4982443;28;20189;-72
2022/11/23 09:43:06;;;;;;;5.27;4.77;;;;;;;8.18;100.00;98950.63;4981462;28;20212;-72
2022/11/23 09:45:31;;;;;;;4.37;3.20;;;;;;;8.23;100.00;98958.25;4985899;28;20216;-72
2022/11/23 09:48:06;;;;;;;3.57;2.13;;;;;;;8.26;100.00;98954.75;4985259;28;20276;-72
2022/11/23 09:50:54;;;;;;;3.27;1.47;;;;;;;8.29;100.00;98962.44;4985920;28;20216;-72
2022/11/23 09:53:34;;;;;;;2.53;1.70;;;;;;;8.35;100.00;98952.00;4981687;28;20587;-72
2022/11/23 09:56:00;;;;;;;4.00;1.80;;;;;;;8.40;100.00;98952.72;4983028;28;20248;-71
2022/11/23 09:58:33;;;;;;;3.07;1.60;;;;;;;8.46;100.00;98955.19;4985072;28;20217;-72
2022/11/23 10:01:10;;;;;;;3.30;1.80;;;;;;;8.50;100.00;98953.41;4985475;28;20178;-72
2022/11/23 10:03:38;;;;;;;3.43;1.30;;;;;;;8.53;100.00;98953.34;4984920;28;20193;-73
2022/11/23 10:06:18;;;;;;;2.87;1.20;;;;;;;8.53;100.00;98951.66;4985851;28;20208;-73
2022/11/23 10:08:46;;;;;;;3.60;1.70;;;;;;;8.57;100.00;98952.41;4987605;28;20790;-74
2022/11/23 10:11:24;;;;;;;3.07;1.07;;;;;;;8.61;100.00;98950.59;4985840;28;20227;-71
2022/11/23 10:13:55;;;;;;;2.00;1.13;;;;;;;8.66;100.00;98944.47;4992943;28;20196;-71
2022/11/23 10:16:36;;;;;;;1.87;1.20;;;;;;;8.70;100.00;98950.38;4983623;28;20186;-72
2022/11/23 10:19:11;;;;;;;2.27;1.13;;;;;;;8.73;100.00;98941.75;4991015;28;20222;-73
2022/11/23 10:22:03;;;;;;;3.37;1.07;;;;;;;8.76;100.00;98946.84;4986579;28;20197;-74
2022/11/23 10:24:38;;;;;;;4.07;1.60;;;;;;;8.79;100.00;98942.47;4977378;28;20240;-71
2022/11/23 10:27:12;;;;;;;3.63;1.13;;;;;;;8.82;100.00;98941.53;4986543;28;20192;-72
2022/11/23 10:29:38;;;;;;;2.40;1.53;;;;;;;8.85;99.66;98934.56;4984858;28;21152;-71
2022/11/23 10:32:11;;;;;;;3.67;1.40;;;;;;;8.90;99.66;98939.63;4983487;28;20181;-72
2022/11/23 10:34:51;;;;;;;2.40;1.40;;;;;;;8.95;99.42;98944.69;4975836;28;20739;-74
2022/11/23 10:37:17;;;;;;;5.57;1.57;;;;;;;9.00;98.95;98947.97;4983848;28;20237;-71
2022/11/23 10:39:43;;;;;;;4.27;1.47;;;;;;;9.03;98.65;98939.31;4983965;28;20712;-72
2022/11/23 10:42:18;;;;;;;2.17;1.27;;;;;;;9.06;98.69;98937.50;4986659;28;20676;-73
2022/11/23 10:44:46;;;;;;;4.20;1.80;;;;;;;9.09;98.41;98937.44;4985913;28;20185;-72
2022/11/23 10:47:38;;;;;;;2.20;1.23;;;;;;;9.13;98.36;98938.22;4985427;28;20188;-72
2022/11/23 10:50:23;;;;;;;2.93;1.37;;;;;;;9.13;98.65;98931.34;4987072;28;20206;-72
2022/11/23 10:53:21;;;;;;;1.87;0.97;;;;;;;9.17;98.14;98923.47;4985168;28;20185;-72
2022/11/23 10:55:51;;;;;;;2.87;1.30;;;;;;;9.23;97.99;98923.34;4984793;28;20193;-72
2022/11/23 10:58:26;;;;;;;2.43;1.07;;;;;;;9.30;97.81;98901.66;4982739;28;20305;-71
2022/11/23 11:01:00;;;;;;;2.13;1.33;;;;;;;9.36;97.71;98905.81;4988126;28;20303;-72
2022/11/23 11:03:30;;;;;;;3.20;0.97;;;;;;;9.39;97.45;98898.81;4985764;28;20189;-73
2022/11/23 11:05:56;;;;;;;3.30;1.47;;;;;;;9.43;97.35;98894.41;4994355;28;20185;-72
2022/11/23 11:08:32;;;;;;;3.43;1.30;;;;;;;9.46;96.72;98889.19;4986739;28;20274;-72
2022/11/23 11:11:37;;;;;;;2.57;1.40;;;;;;;9.48;96.24;98889.13;4985993;28;20923;-72
2022/11/23 11:14:16;;;;;;;5.13;1.93;;;;;;;9.52;96.01;98877.84;4965574;28;20725;-74
2022/11/23 11:16:53;;;;;;;3.43;1.60;;;;;;;9.56;95.08;98882.88;4985116;28;20185;-72
2022/11/23 11:19:25;;;;;;;1.93;1.20;;;;;;;9.58;94.96;98878.50;4982085;28;20559;-71
2022/11/23 11:21:50;;;;;;;2.50;1.60;;;;;;;9.61;95.07;98869.81;4986196;28;20255;-71
2022/11/23 11:24:38;;;;;;;1.87;1.40;;;;;;;9.66;95.02;98870.53;4981569;28;20182;-72
2022/11/23 11:27:12;;;;;;;1.90;1.10;;;;;;;9.71;94.95;98873.84;4986487;28;20195;-72
2022/11/23 11:29:43;;;;;;;1.97;1.10;;;;;;;9.75;94.80;98872.91;4979543;28;20206;-74
2022/11/23 11:32:12;;;;;;;2.73;1.23;;;;;;;9.78;94.60;98861.63;4980858;28;20194;-72
2022/11/23 11:34:47;;;;;;;1.60;1.30;;;;;;;9.80;94.22;98857.25;4984728;28;20212;-72
2022/11/23 11:37:12;;;;;;;3.23;1.50;;;;;;;9.85;93.81;98860.53;4986387;28;20190;-71